Time;durP1;ratioP1;P1;durP2;ratioP2;P2;SDS_P1;SDS_P2;PMS_P1;PMS_P2;Temp;Humidity;BMP_temperature;BMP_pressure;BME280_temperature;BME280_humidity;BME280_pressure;Samples;Min_cycle;Max_cycle;Signal;HPM_P1;HPM_P2
2022/08/12 00:43:45;;;;;;;2.95;2.05;;;;;17.60;94428.00;;;;7391027;19;20132;-78
2022/08/12 00:46:35;;;;;;;4.70;2.15;;;;;17.70;94427.00;;;;7393717;19;20589;-78
2022/08/12 00:49:03;;;;;;;5.40;2.00;;;;;17.70;94434.00;;;;7391361;19;20200;-78
2022/08/12 00:54:28;;;;;;;2.95;2.00;;;;;17.60;94436.00;;;;7391100;19;20152;-78
2022/08/12 00:57:42;;;;;;;2.50;2.30;;;;;17.40;94433.00;;;;7393968;19;20181;-78
2022/08/12 01:00:24;;;;;;;3.58;2.17;;;;;17.40;94439.00;;;;7389745;19;20133;-78
2022/08/12 01:03:01;;;;;;;2.15;1.95;;;;;17.30;94435.00;;;;7390876;19;20636;-78
2022/08/12 01:11:30;;;;;;;4.25;2.05;;;;;17.20;94443.00;;;;7389560;19;20156;-78
2022/08/12 01:14:10;;;;;;;2.00;1.80;;;;;17.20;94441.00;;;;7391090;19;20145;-78
2022/08/12 01:16:38;;;;;;;2.40;2.20;;;;;17.10;94442.00;;;;7394307;19;20971;-78
2022/08/12 01:19:13;;;;;;;2.22;1.83;;;;;16.90;94432.00;;;;7390950;19;20152;-79
2022/08/12 01:22:03;;;;;;;3.20;1.90;;;;;16.70;94440.00;;;;7392905;19;20142;-78
2022/08/12 01:24:48;;;;;;;2.38;1.90;;;;;16.60;94440.00;;;;7390930;19;20133;-78
2022/08/12 01:27:17;;;;;;;2.38;2.00;;;;;16.60;94440.00;;;;7391489;19;20579;-78
2022/08/12 01:29:55;;;;;;;3.42;2.03;;;;;16.60;94441.00;;;;7391601;19;20117;-78
2022/08/12 01:32:26;;;;;;;2.63;2.20;;;;;16.50;94440.00;;;;7393968;19;20516;-78
2022/08/12 01:35:09;;;;;;;5.18;2.00;;;;;16.50;94442.00;;;;7390936;19;20177;-78
2022/08/12 01:37:54;;;;;;;2.33;2.13;;;;;16.60;94432.00;;;;7390699;19;20140;-78
2022/08/12 01:40:34;;;;;;;2.65;2.10;;;;;16.70;94429.00;;;;7389633;19;20613;-77
2022/08/12 01:43:09;;;;;;;3.53;1.98;;;;;16.70;94438.00;;;;7392174;19;20576;-78
2022/08/12 01:46:05;;;;;;;3.35;2.30;;;;;16.60;94427.00;;;;7389881;19;20132;-78
2022/08/12 01:48:44;;;;;;;7.15;1.80;;;;;16.50;94427.00;;;;7390944;19;20632;-78
2022/08/12 01:51:41;;;;;;;3.28;2.25;;;;;16.40;94424.00;;;;7389182;19;20592;-78
2022/08/12 01:54:41;;;;;;;4.22;2.30;;;;;16.30;94421.00;;;;7391421;19;20587;-78
2022/08/12 01:57:40;;;;;;;3.22;1.90;;;;;16.20;94422.00;;;;7388730;19;20611;-76
2022/08/12 02:00:43;;;;;;;2.97;2.20;;;;;16.10;94421.00;;;;7389992;19;20132;-77
2022/08/12 02:12:55;;;;;;;2.30;2.10;;;;;16.00;94419.00;;;;7388822;19;20179;-77
2022/08/12 02:15:52;;;;;;;3.70;1.88;;;;;16.00;94420.00;;;;7390582;19;20161;-77
2022/08/12 02:18:32;;;;;;;2.33;1.90;;;;;15.90;94416.00;;;;7389562;19;20137;-78
2022/08/12 02:21:45;;;;;;;3.13;2.05;;;;;15.80;94414.00;;;;7391174;19;20154;-77
2022/08/12 02:24:17;;;;;;;2.30;2.10;;;;;15.80;94408.00;;;;7390226;19;20461;-77
2022/08/12 02:26:56;;;;;;;2.70;2.50;;;;;15.90;94404.00;;;;7390175;19;20124;-77
2022/08/12 02:29:24;;;;;;;5.20;2.45;;;;;16.00;94399.00;;;;7387176;19;20166;-77
2022/08/12 02:32:00;;;;;;;7.43;2.58;;;;;16.10;94395.00;;;;7389615;19;20197;-76
2022/08/12 02:34:28;;;;;;;4.60;2.25;;;;;16.10;94394.00;;;;7389939;19;20701;-75
2022/08/12 02:36:58;;;;;;;4.32;2.40;;;;;16.00;94388.00;;;;7389521;19;20465;-77
2022/08/12 02:39:35;;;;;;;7.63;2.70;;;;;16.30;94384.00;;;;7388871;19;20170;-77
2022/08/12 02:42:05;;;;;;;3.60;2.65;;;;;16.50;94389.00;;;;7390675;19;20531;-77
2022/08/12 02:44:43;;;;;;;2.63;2.20;;;;;16.30;94381.00;;;;7388689;19;20123;-77
2022/08/12 02:47:13;;;;;;;4.18;2.45;;;;;16.10;94384.00;;;;7389315;19;20142;-77
2022/08/12 02:50:09;;;;;;;5.15;2.50;;;;;15.80;94380.00;;;;7388251;19;20159;-76
2022/08/12 02:52:37;;;;;;;3.00;2.25;;;;;15.90;94380.00;;;;7391321;19;20541;-77
2022/08/12 02:55:18;;;;;;;2.90;2.10;;;;;15.80;94379.00;;;;7388803;19;20164;-76
2022/08/12 02:58:08;;;;;;;4.00;2.15;;;;;15.70;94383.00;;;;7389025;19;20163;-77
2022/08/12 03:00:46;;;;;;;2.35;2.10;;;;;15.70;94382.00;;;;7387935;19;20144;-78
2022/08/12 03:03:18;;;;;;;5.60;2.30;;;;;15.80;94384.00;;;;7390587;19;20180;-78
2022/08/12 03:06:22;;;;;;;4.78;2.45;;;;;15.90;94387.00;;;;7388052;19;20797;-77
2022/08/12 03:08:57;;;;;;;2.65;2.38;;;;;16.00;94390.00;;;;7387359;19;20618;-77
2022/08/12 03:11:48;;;;;;;3.42;2.00;;;;;16.00;94387.00;;;;7392491;19;20185;-76
2022/08/12 03:14:17;;;;;;;3.78;2.65;;;;;15.90;94384.00;;;;7392830;19;20620;-79
2022/08/12 03:17:10;;;;;;;3.60;2.30;;;;;16.00;94382.00;;;;7396347;19;20583;-77
2022/08/12 03:19:38;;;;;;;2.10;1.90;;;;;16.00;94380.00;;;;7396507;19;20125;-77
2022/08/12 03:22:39;;;;;;;2.63;2.13;;;;;15.90;94382.00;;;;7396718;19;20179;-77
2022/08/12 03:25:15;;;;;;;2.40;2.20;;;;;15.80;94383.00;;;;7396032;19;20567;-77
2022/08/12 03:27:54;;;;;;;5.40;2.53;;;;;15.70;94391.00;;;;7394735;19;20144;-77
2022/08/12 03:30:28;;;;;;;3.85;2.13;;;;;15.70;94389.00;;;;7391729;19;20133;-77
2022/08/12 03:33:03;;;;;;;3.50;2.25;;;;;15.70;94392.00;;;;7396916;19;20749;-77
2022/08/12 03:35:34;;;;;;;3.58;2.30;;;;;15.70;94387.00;;;;7395058;19;20165;-76
2022/08/12 03:38:10;;;;;;;5.20;2.40;;;;;15.80;94392.00;;;;7394922;19;20599;-77
2022/08/12 04:01:26;;;;;;;5.78;2.20;;;;;15.60;94389.00;;;;7393323;19;20502;-76
2022/08/12 04:04:10;;;;;;;2.78;2.47;;;;;15.70;94385.00;;;;7393301;19;20128;-77
2022/08/12 04:06:46;;;;;;;5.30;2.38;;;;;15.70;94388.00;;;;7393232;19;20607;-76
2022/08/12 04:09:21;;;;;;;2.42;2.17;;;;;15.70;94384.00;;;;7392109;19;20160;-77
2022/08/12 04:15:00;;;;;;;3.53;2.72;;;;;15.60;94386.00;;;;7394746;19;20125;-77
2022/08/12 04:17:28;;;;;;;6.13;2.30;;;;;15.80;94386.00;;;;7392844;19;20512;-78
2022/08/12 04:20:10;;;;;;;3.00;2.15;;;;;15.70;94380.00;;;;7391223;19;20150;-77
2022/08/12 04:22:38;;;;;;;6.03;2.42;;;;;15.80;94389.00;;;;7394166;19;20184;-78
2022/08/12 04:25:13;;;;;;;3.88;2.40;;;;;15.90;94379.00;;;;7397865;19;20148;-75
2022/08/12 04:27:45;;;;;;;3.20;2.60;;;;;15.90;94381.00;;;;7391763;19;20128;-77
2022/08/12 04:30:19;;;;;;;3.05;2.47;;;;;16.00;94378.00;;;;7389209;19;20143;-76
2022/08/12 04:33:00;;;;;;;2.50;2.28;;;;;15.90;94377.00;;;;7392026;19;21032;-77
2022/08/12 04:35:34;;;;;;;3.70;2.40;;;;;16.00;94379.00;;;;7392629;19;20516;-77
2022/08/12 04:38:02;;;;;;;3.08;2.40;;;;;16.00;94378.00;;;;7393371;19;20133;-76
2022/08/12 04:40:32;;;;;;;6.18;2.33;;;;;16.00;94383.00;;;;7390442;19;20534;-77
2022/08/12 04:43:06;;;;;;;4.20;2.40;;;;;16.10;94376.00;;;;7391964;19;20640;-77
2022/08/12 04:45:56;;;;;;;4.78;2.35;;;;;16.20;94378.00;;;;7390557;19;20160;-78
2022/08/12 04:48:32;;;;;;;6.75;2.30;;;;;16.20;94376.00;;;;7391778;19;20738;-77
2022/08/12 04:51:00;;;;;;;5.70;2.30;;;;;16.20;94372.00;;;;7388937;19;20133;-78
2022/08/12 04:53:29;;;;;;;7.45;2.35;;;;;16.20;94367.00;;;;7395115;19;20136;-77
2022/08/12 04:56:04;;;;;;;4.38;2.45;;;;;16.30;94365.00;;;;7391842;19;20136;-76
2022/08/12 04:58:33;;;;;;;2.78;2.40;;;;;16.30;94367.00;;;;7386118;19;20592;-76
2022/08/12 05:01:00;;;;;;;3.55;2.20;;;;;16.40;94368.00;;;;7380659;19;20159;-76
2022/08/12 05:03:35;;;;;;;6.03;2.53;;;;;16.40;94375.00;;;;7393745;19;20204;-78
2022/08/12 05:06:13;;;;;;;4.57;2.40;;;;;16.50;94374.00;;;;7393840;19;20488;-77
2022/08/12 05:08:59;;;;;;;4.22;2.20;;;;;16.60;94367.00;;;;7394257;19;20165;-76
2022/08/12 05:11:35;;;;;;;3.03;2.35;;;;;16.70;94358.00;;;;7390794;19;20176;-77
2022/08/12 05:14:27;;;;;;;2.63;2.20;;;;;16.80;94364.00;;;;7393086;19;20226;-78
2022/08/12 05:16:55;;;;;;;5.07;2.42;;;;;16.80;94360.00;;;;7395040;19;20128;-76
2022/08/12 05:19:34;;;;;;;5.97;2.20;;;;;16.90;94363.00;;;;7399079;19;20177;-76
2022/08/12 05:22:04;;;;;;;3.65;2.80;;;;;17.00;94359.00;;;;7395662;19;20161;-76
2022/08/12 05:24:38;;;;;;;4.18;2.50;;;;;17.00;94364.00;;;;7397421;19;20152;-75
2022/08/12 05:27:10;;;;;;;3.15;2.35;;;;;17.20;94375.00;;;;7400243;19;20124;-77
2022/08/12 05:29:39;;;;;;;13.55;6.72;;;;;17.20;94374.00;;;;7396729;19;20171;-76
2022/08/12 05:32:33;;;;;;;9.25;5.35;;;;;17.30;94381.00;;;;7390642;19;20148;-77
2022/08/12 05:35:05;;;;;;;9.13;5.13;;;;;17.40;94369.00;;;;7396188;19;20659;-76
2022/08/12 05:37:39;;;;;;;7.13;4.72;;;;;17.50;94381.00;;;;7397304;19;20124;-76
2022/08/12 05:40:10;;;;;;;6.22;3.30;;;;;17.60;94382.00;;;;7395636;19;20478;-76
2022/08/12 05:42:39;;;;;;;6.65;4.18;;;;;17.80;94380.00;;;;7394250;19;20160;-76
2022/08/12 05:45:14;;;;;;;7.78;3.42;;;;;17.90;94384.00;;;;7394489;19;20156;-76
2022/08/12 05:47:42;;;;;;;6.78;3.45;;;;;18.10;94387.00;;;;7393756;19;20212;-76
2022/08/12 05:50:20;;;;;;;5.60;3.35;;;;;18.20;94386.00;;;;7392189;19;20256;-75
2022/08/12 05:52:54;;;;;;;4.88;2.90;;;;;18.30;94387.00;;;;7393101;19;20148;-76
2022/08/12 05:55:22;;;;;;;2.53;2.20;;;;;18.60;94388.00;;;;7393405;19;20498;-75
2022/08/12 05:57:56;;;;;;;2.50;2.10;;;;;18.70;94398.00;;;;7392049;19;20228;-76
2022/08/12 06:00:32;;;;;;;2.70;2.28;;;;;18.80;94393.00;;;;7389769;19;20152;-75
2022/08/12 06:03:01;;;;;;;6.30;2.28;;;;;18.80;94394.00;;;;7395758;19;20477;-75
2022/08/12 06:05:35;;;;;;;3.72;2.38;;;;;19.00;94398.00;;;;7389227;19;20144;-75
2022/08/12 06:08:23;;;;;;;4.25;2.50;;;;;19.00;94396.00;;;;7387953;19;20180;-77
2022/08/12 06:11:00;;;;;;;3.35;2.00;;;;;19.00;94400.00;;;;7392060;19;20590;-76
2022/08/12 06:13:42;;;;;;;2.78;2.40;;;;;19.20;94403.00;;;;7395094;19;20159;-77
2022/08/12 06:16:22;;;;;;;6.55;2.28;;;;;19.40;94402.00;;;;7393120;19;20178;-77
2022/08/12 06:18:56;;;;;;;4.30;2.65;;;;;19.50;94421.00;;;;7393851;19;20481;-77
2022/08/12 06:21:24;;;;;;;4.38;2.28;;;;;19.40;94405.00;;;;7393189;19;20152;-77
2022/08/12 06:23:53;;;;;;;8.75;2.60;;;;;19.50;94407.00;;;;7395414;19;20128;-76
2022/08/12 06:26:27;;;;;;;2.97;2.67;;;;;19.60;94407.00;;;;7391616;19;20476;-76
2022/08/12 06:28:59;;;;;;;5.15;2.42;;;;;19.60;94408.00;;;;7391463;19;20156;-77
2022/08/12 06:31:27;;;;;;;3.55;2.47;;;;;19.60;94409.00;;;;7390729;19;20156;-76
2022/08/12 06:34:02;;;;;;;4.03;2.40;;;;;20.10;94406.00;;;;7393533;19;20651;-76
2022/08/12 06:36:52;;;;;;;4.70;2.63;;;;;20.10;94409.00;;;;7394028;19;20612;-77
2022/08/12 06:39:27;;;;;;;3.03;2.22;;;;;20.10;94408.00;;;;7387844;19;20208;-77
2022/08/12 06:44:59;;;;;;;4.63;2.40;;;;;20.30;94399.00;;;;7400622;19;20148;-76
2022/08/12 06:47:31;;;;;;;5.32;2.80;;;;;20.50;94398.00;;;;7400733;19;20129;-75
2022/08/12 06:50:06;;;;;;;9.55;2.55;;;;;20.70;94399.00;;;;7396899;19;20129;-77
2022/08/12 06:52:34;;;;;;;3.80;2.53;;;;;21.20;94398.00;;;;7399895;19;20145;-76
2022/08/12 06:55:02;;;;;;;3.00;2.45;;;;;21.20;94394.00;;;;7402536;19;20220;-78
2022/08/12 06:57:54;;;;;;;7.47;2.58;;;;;21.00;94397.00;;;;7403764;19;20164;-75
2022/08/12 07:00:34;;;;;;;3.20;2.20;;;;;21.20;94397.00;;;;7400572;19;20179;-77
2022/08/12 07:03:20;;;;;;;3.10;2.25;;;;;21.50;94393.00;;;;7400361;19;20235;-76
2022/08/12 07:05:50;;;;;;;5.90;2.40;;;;;21.30;94398.00;;;;7399999;19;20152;-75
2022/08/12 07:08:29;;;;;;;3.70;2.15;;;;;21.70;94395.00;;;;7400208;19;20152;-77
2022/08/12 07:11:15;;;;;;;2.92;2.10;;;;;21.80;94394.00;;;;7400420;19;20125;-77
2022/08/12 07:14:00;;;;;;;5.43;2.33;;;;;22.00;94404.00;;;;7398602;19;20616;-76
2022/08/12 07:16:51;;;;;;;3.25;2.30;;;;;22.00;94401.00;;;;7401219;19;20149;-76
2022/08/12 07:19:33;;;;;;;4.97;2.40;;;;;21.80;94398.00;;;;7398731;19;20161;-76
2022/08/12 07:22:12;;;;;;;5.20;2.17;;;;;21.90;94400.00;;;;7397265;19;20148;-78
2022/08/12 07:25:29;;;;;;;2.25;2.05;;;;;22.00;94402.00;;;;7399184;19;20186;-76
2022/08/12 07:27:39;;;;;;;5.75;2.47;;;;;22.20;94407.00;;;;7401533;19;20232;-76
2022/08/12 07:30:14;;;;;;;3.05;2.20;;;;;22.40;94410.00;;;;7397258;19;20145;-75
2022/08/12 07:32:46;;;;;;;4.93;2.35;;;;;22.60;94404.00;;;;7401134;19;20169;-78
2022/08/12 07:35:30;;;;;;;5.18;2.30;;;;;22.80;94411.00;;;;7402829;19;20163;-77
2022/08/12 07:37:59;;;;;;;5.22;2.38;;;;;23.00;94403.00;;;;7401566;19;20139;-77
2022/08/12 07:40:33;;;;;;;3.78;2.08;;;;;23.20;94411.00;;;;7400211;19;20145;-76
2022/08/12 07:43:01;;;;;;;2.70;2.00;;;;;23.00;94411.00;;;;7402550;19;20145;-77
2022/08/12 07:45:28;;;;;;;6.88;2.17;;;;;23.10;94409.00;;;;7401460;19;20165;-77
2022/08/12 07:48:04;;;;;;;6.70;2.70;;;;;23.00;94404.00;;;;7398446;19;20235;-77
2022/08/12 07:50:32;;;;;;;3.47;2.30;;;;;23.40;94416.00;;;;7397082;19;20163;-76
2022/08/12 07:53:00;;;;;;;9.75;2.55;;;;;23.70;94417.00;;;;7402282;19;20603;-77
2022/08/12 07:55:35;;;;;;;4.68;2.20;;;;;23.90;94411.00;;;;7399632;19;20128;-76
2022/08/12 07:58:04;;;;;;;4.38;2.13;;;;;23.70;94406.00;;;;7399025;19;20483;-78
2022/08/12 08:00:35;;;;;;;6.88;2.45;;;;;23.80;94410.00;;;;7398670;19;20159;-77
2022/08/12 08:03:11;;;;;;;5.03;2.33;;;;;23.70;94411.00;;;;7401190;19;20148;-77
2022/08/12 08:05:45;;;;;;;5.47;2.13;;;;;23.70;94420.00;;;;7402050;19;20140;-78
2022/08/12 08:08:22;;;;;;;4.95;2.17;;;;;23.90;94425.00;;;;7398110;19;20147;-76
2022/08/12 08:12:52;;;;;;;3.03;2.00;;;;;23.80;94421.00;;;;7397958;19;20153;-77
2022/08/12 08:13:54;;;;;;;2.97;2.15;;;;;24.00;94423.00;;;;7400271;19;20169;-76
2022/08/12 08:16:23;;;;;;;11.50;2.45;;;;;24.20;94416.00;;;;7398645;19;20147;-78
2022/08/12 08:18:58;;;;;;;2.58;2.15;;;;;24.30;94419.00;;;;7396770;19;20133;-78
2022/08/12 08:21:31;;;;;;;4.45;2.10;;;;;24.50;94417.00;;;;7403211;19;20133;-75
2022/08/12 08:24:16;;;;;;;10.05;2.28;;;;;24.70;94420.00;;;;7398545;19;20776;-76
2022/08/12 08:26:47;;;;;;;8.35;2.03;;;;;24.60;94414.00;;;;7397751;19;20149;-78
2022/08/12 08:29:22;;;;;;;4.15;1.95;;;;;24.90;94422.00;;;;7396898;19;20137;-78
2022/08/12 08:31:57;;;;;;;3.38;2.08;;;;;24.60;94427.00;;;;7396450;19;20154;-78
2022/08/12 08:34:33;;;;;;;4.80;1.85;;;;;24.90;94420.00;;;;7397852;19;20151;-77
2022/08/12 08:37:21;;;;;;;3.42;2.33;;;;;24.90;94435.00;;;;7397494;19;20175;-77
2022/08/12 08:42:35;;;;;;;5.38;2.30;;;;;25.20;94425.00;;;;7392637;19;20151;-77
2022/08/12 08:42:48;;;;;;;4.28;2.05;;;;;25.40;94425.00;;;;7399659;19;20141;-78
2022/08/12 08:45:24;;;;;;;5.35;2.10;;;;;25.00;94433.00;;;;7399563;19;20148;-78
2022/08/12 08:47:53;;;;;;;6.95;2.00;;;;;25.10;94425.00;;;;7396354;19;20180;-77
2022/08/12 08:50:27;;;;;;;5.50;2.15;;;;;25.20;94416.00;;;;7394139;19;20151;-78
2022/08/12 08:53:01;;;;;;;5.13;2.05;;;;;25.40;94416.00;;;;7398692;19;20147;-76
2022/08/12 08:55:30;;;;;;;4.78;2.10;;;;;25.60;94425.00;;;;7398817;19;20133;-77
2022/08/12 08:58:20;;;;;;;3.10;1.70;;;;;25.60;94418.00;;;;7396747;19;20125;-76
2022/08/12 09:00:55;;;;;;;3.47;2.30;;;;;25.30;94419.00;;;;7398632;19;20200;-79
2022/08/12 09:03:22;;;;;;;4.57;2.30;;;;;25.50;94432.00;;;;7397053;19;20197;-78
2022/08/12 09:06:13;;;;;;;4.65;2.00;;;;;25.70;94420.00;;;;7397135;19;20125;-77
2022/08/12 09:09:04;;;;;;;3.58;2.35;;;;;25.80;94410.00;;;;7398076;19;20209;-76
2022/08/12 09:14:47;;;;;;;2.88;2.13;;;;;26.10;94409.00;;;;7397815;19;20144;-77
2022/08/12 09:17:21;;;;;;;3.38;1.80;;;;;26.30;94419.00;;;;7399343;19;20174;-79
2022/08/12 09:20:14;;;;;;;5.65;2.08;;;;;26.30;94412.00;;;;7395003;19;20144;-79
2022/08/12 09:22:42;;;;;;;4.60;2.20;;;;;26.40;94416.00;;;;7395820;19;20137;-81
2022/08/12 09:25:18;;;;;;;2.33;2.00;;;;;26.40;94409.00;;;;7396522;19;20140;-77
2022/08/12 09:27:53;;;;;;;2.88;2.10;;;;;26.40;94407.00;;;;7396442;19;20128;-76
2022/08/12 09:30:49;;;;;;;2.75;1.98;;;;;26.50;94408.00;;;;7396273;19;20133;-76
2022/08/12 09:33:17;;;;;;;6.03;1.83;;;;;26.60;94406.00;;;;7398413;19;20144;-76
2022/08/12 09:36:27;;;;;;;2.58;2.13;;;;;26.30;94394.00;;;;7393801;19;20137;-74
2022/08/12 09:39:24;;;;;;;4.22;2.35;;;;;26.60;94403.00;;;;7398264;19;21007;-76
2022/08/12 09:45:24;;;;;;;10.13;2.30;;;;;26.90;94398.00;;;;7397080;19;20149;-79
2022/08/12 09:48:19;;;;;;;4.07;1.77;;;;;27.40;94396.00;;;;7395051;19;20141;-76
2022/08/12 09:50:50;;;;;;;3.65;1.95;;;;;26.80;94390.00;;;;7397008;19;20591;-77
2022/08/12 09:53:28;;;;;;;4.00;2.20;;;;;27.00;94382.00;;;;7397234;19;20145;-75
2022/08/12 09:56:10;;;;;;;4.82;1.77;;;;;26.90;94391.00;;;;7394503;19;20144;-76
2022/08/12 09:59:08;;;;;;;3.70;1.88;;;;;27.10;94380.00;;;;7395974;19;20135;-76
2022/08/12 10:01:39;;;;;;;2.45;2.00;;;;;27.40;94377.00;;;;7396716;19;20606;-79
2022/08/12 10:04:34;;;;;;;2.35;1.80;;;;;27.60;94368.00;;;;7395433;19;20473;-78
2022/08/12 10:07:17;;;;;;;4.25;1.90;;;;;27.60;94365.00;;;;7396500;19;20144;-80
2022/08/12 10:10:09;;;;;;;2.33;1.90;;;;;27.70;94362.00;;;;7392668;19;20216;-78
2022/08/12 10:16:18;;;;;;;8.63;2.10;;;;;27.90;94362.00;;;;7391579;19;20133;-76
2022/08/12 10:18:55;;;;;;;2.92;2.08;;;;;28.40;94361.00;;;;7400257;19;20140;-76
2022/08/12 10:21:37;;;;;;;2.97;2.00;;;;;28.10;94361.00;;;;7405578;19;20493;-75
2022/08/12 10:24:21;;;;;;;3.17;2.00;;;;;27.50;94355.00;;;;7399873;19;20141;-76
2022/08/12 10:29:45;;;;;;;4.40;1.70;;;;;27.90;94355.00;;;;7402134;19;20527;-78
2022/08/12 10:32:40;;;;;;;6.97;2.05;;;;;28.20;94355.00;;;;7404044;19;20531;-80
2022/08/12 10:35:14;;;;;;;3.75;2.10;;;;;27.70;94342.00;;;;7404265;19;20169;-76
2022/08/12 10:37:49;;;;;;;3.22;2.00;;;;;27.80;94352.00;;;;7401536;19;20493;-80
2022/08/12 10:43:39;;;;;;;3.53;2.20;;;;;27.60;94364.00;;;;7400886;19;20136;-79
2022/08/12 10:43:41;;;;;;;6.10;2.05;;;;;28.00;94360.00;;;;7405184;19;20144;-81
2022/08/12 10:46:23;;;;;;;3.28;2.10;;;;;27.70;94355.00;;;;7402438;19;20596;-81
2022/08/12 10:48:59;;;;;;;2.30;2.10;;;;;28.10;94361.00;;;;7405322;19;20200;-78
2022/08/12 10:51:50;;;;;;;4.53;2.17;;;;;27.30;94361.00;;;;7398509;19;20633;-78
2022/08/12 10:54:49;;;;;;;2.65;1.60;;;;;27.90;94355.00;;;;7403433;19;20159;-81
2022/08/12 10:57:19;;;;;;;6.97;2.10;;;;;28.50;94346.00;;;;7404268;19;20617;-78
2022/08/12 11:00:14;;;;;;;2.42;2.13;;;;;29.10;94347.00;;;;7401620;19;20137;-79
2022/08/12 11:03:03;;;;;;;2.90;2.20;;;;;28.60;94353.00;;;;7401322;19;20172;-79
2022/08/12 11:05:57;;;;;;;3.38;2.17;;;;;28.20;94349.00;;;;7403843;19;20171;-79
2022/08/12 11:08:45;;;;;;;2.42;2.20;;;;;28.60;94352.00;;;;7403696;19;20143;-78
2022/08/12 11:11:34;;;;;;;2.20;2.00;;;;;29.00;94339.00;;;;7401913;19;20663;-77
2022/08/12 11:14:32;;;;;;;2.30;2.10;;;;;28.80;94339.00;;;;7400593;19;20484;-76
2022/08/12 11:17:17;;;;;;;4.70;2.10;;;;;29.10;94338.00;;;;7402487;19;20480;-78
2022/08/12 11:20:06;;;;;;;3.15;2.17;;;;;28.90;94334.00;;;;7399408;19;20566;-78
2022/08/12 11:22:42;;;;;;;4.97;2.40;;;;;29.20;94335.00;;;;7399539;19;20892;-78
2022/08/12 11:25:25;;;;;;;4.97;1.75;;;;;29.10;94333.00;;;;7400762;19;20484;-78
2022/08/12 11:28:20;;;;;;;3.28;2.28;;;;;29.70;94325.00;;;;7401129;19;20129;-78
2022/08/12 11:31:03;;;;;;;2.63;2.03;;;;;29.40;94318.00;;;;7397476;19;20180;-77
2022/08/12 11:33:42;;;;;;;3.70;1.70;;;;;29.40;94320.00;;;;7397434;19;20140;-80
2022/08/12 11:36:30;;;;;;;2.13;1.75;;;;;29.70;94322.00;;;;7399723;19;20152;-78
2022/08/12 11:39:07;;;;;;;2.60;2.03;;;;;30.30;94326.00;;;;7402146;19;20136;-78
2022/08/12 11:41:39;;;;;;;3.28;2.00;;;;;29.90;94324.00;;;;7401686;19;20158;-81
2022/08/12 11:44:14;;;;;;;6.20;1.95;;;;;29.90;94319.00;;;;7400353;19;20153;-77
2022/08/12 11:47:14;;;;;;;2.83;2.15;;;;;29.40;94316.00;;;;7401589;19;20140;-77
2022/08/12 11:49:48;;;;;;;2.83;1.98;;;;;29.50;94328.00;;;;7401342;19;20598;-78
2022/08/12 11:52:18;;;;;;;3.85;1.92;;;;;29.60;94318.00;;;;7398770;19;20718;-78
2022/08/12 11:55:06;;;;;;;4.22;2.17;;;;;29.50;94325.00;;;;7400749;19;20137;-77
2022/08/12 11:57:49;;;;;;;2.97;2.30;;;;;30.10;94327.00;;;;7402893;19;20144;-82
2022/08/12 12:00:37;;;;;;;3.47;2.13;;;;;30.00;94333.00;;;;7397902;19;20136;-83
2022/08/12 12:03:32;;;;;;;6.90;2.15;;;;;29.70;94324.00;;;;7396539;19;20243;-78
2022/08/12 12:06:16;;;;;;;2.63;2.20;;;;;30.10;94304.00;;;;7400653;19;20143;-78
2022/08/12 12:08:51;;;;;;;3.08;1.90;;;;;30.20;94303.00;;;;7401043;19;20137;-78
2022/08/12 12:11:34;;;;;;;10.15;1.90;;;;;30.50;94308.00;;;;7400262;19;20145;-81
2022/08/12 12:14:16;;;;;;;6.07;2.28;;;;;30.70;94313.00;;;;7398276;19;20599;-82
2022/08/12 12:16:44;;;;;;;2.45;1.98;;;;;30.30;94308.00;;;;7400819;19;20144;-79
2022/08/12 12:19:19;;;;;;;6.72;1.98;;;;;30.80;94302.00;;;;7402686;19;20536;-79
2022/08/12 12:21:50;;;;;;;2.92;2.13;;;;;30.80;94300.00;;;;7399193;19;20137;-78
2022/08/12 12:24:18;;;;;;;5.15;2.17;;;;;30.60;94294.00;;;;7397229;19;20148;-77
2022/08/12 12:26:53;;;;;;;3.80;2.03;;;;;30.90;94294.00;;;;7399931;19;20267;-77
2022/08/12 12:29:29;;;;;;;6.90;2.30;;;;;30.80;94293.00;;;;7400094;19;20158;-79
2022/08/12 12:32:23;;;;;;;3.60;2.33;;;;;30.40;94300.00;;;;7397232;19;20601;-78
2022/08/12 12:34:56;;;;;;;2.17;1.98;;;;;30.40;94291.00;;;;7400151;19;20192;-77
2022/08/12 12:41:29;;;;;;;7.65;2.00;;;;;30.40;94287.00;;;;7392738;19;20141;-75
2022/08/12 12:44:24;;;;;;;7.80;1.98;;;;;30.50;94285.00;;;;7397211;19;20144;-79
2022/08/12 12:47:09;;;;;;;6.40;2.25;;;;;29.10;94302.00;;;;7398723;19;20500;-81
2022/08/12 12:49:56;;;;;;;2.42;1.90;;;;;29.40;94286.00;;;;7398754;19;20475;-79
2022/08/12 12:52:24;;;;;;;3.45;2.05;;;;;30.00;94279.00;;;;7396121;19;20137;-80
2022/08/12 12:55:00;;;;;;;6.35;2.20;;;;;29.50;94302.00;;;;7397090;19;20734;-80
2022/08/12 12:57:37;;;;;;;3.03;2.10;;;;;28.60;94301.00;;;;7400118;19;20141;-80
2022/08/12 13:00:27;;;;;;;1.98;1.77;;;;;28.50;94313.00;;;;7396958;19;20616;-79
2022/08/12 13:02:57;;;;;;;2.00;1.80;;;;;28.20;94308.00;;;;7396381;19;20175;-79
2022/08/12 13:05:37;;;;;;;3.72;1.63;;;;;28.90;94295.00;;;;7396039;19;20132;-78
2022/08/12 13:08:27;;;;;;;4.68;1.85;;;;;29.20;94277.00;;;;7394215;19;20145;-78
2022/08/12 13:11:03;;;;;;;6.45;2.17;;;;;30.20;94273.00;;;;7396335;19;20149;-77
2022/08/12 13:13:38;;;;;;;3.08;1.80;;;;;30.70;94275.00;;;;7397219;19;20180;-79
2022/08/12 13:16:33;;;;;;;2.38;1.75;;;;;30.50;94276.00;;;;7395088;19;20182;-79
2022/08/12 13:19:01;;;;;;;4.72;1.95;;;;;30.20;94296.00;;;;7397629;19;20155;-77
2022/08/12 13:22:14;;;;;;;2.58;1.75;;;;;28.20;94304.00;;;;7398351;19;20152;-81
2022/08/12 13:24:23;;;;;;;2.33;1.60;;;;;27.80;94306.00;;;;7394521;19;20156;-80
2022/08/12 13:26:58;;;;;;;5.35;1.90;;;;;27.20;94314.00;;;;7397442;19;20140;-79
2022/08/12 13:29:32;;;;;;;3.38;2.08;;;;;26.70;94313.00;;;;7397749;19;20137;-77
2022/08/12 13:32:06;;;;;;;2.33;1.70;;;;;27.40;94293.00;;;;7395363;19;20264;-80
2022/08/12 13:34:55;;;;;;;4.03;1.70;;;;;28.10;94282.00;;;;7399028;19;20181;-83
2022/08/12 13:37:53;;;;;;;3.55;1.80;;;;;28.80;94281.00;;;;7396405;19;20173;-77
2022/08/12 13:40:34;;;;;;;3.35;1.70;;;;;29.00;94269.00;;;;7396081;19;20604;-79
2022/08/12 13:43:16;;;;;;;4.78;1.73;;;;;29.30;94281.00;;;;7400354;19;20125;-78
2022/08/12 13:46:08;;;;;;;5.47;1.90;;;;;29.60;94278.00;;;;7396399;19;20221;-77
2022/08/12 13:48:42;;;;;;;2.45;1.52;;;;;29.90;94265.00;;;;7397192;19;20144;-78
2022/08/12 13:51:13;;;;;;;3.92;1.73;;;;;29.40;94271.00;;;;7396380;19;20148;-79
2022/08/12 13:53:51;;;;;;;4.40;1.70;;;;;29.50;94264.00;;;;7393219;19;20569;-79
2022/08/12 13:56:33;;;;;;;4.05;1.83;;;;;29.40;94262.00;;;;7395394;19;20152;-80
2022/08/12 13:59:06;;;;;;;5.13;1.88;;;;;29.10;94261.00;;;;7397285;19;20619;-80
2022/08/12 14:01:40;;;;;;;2.25;1.70;;;;;29.70;94266.00;;;;7398664;19;20139;-79
2022/08/12 14:04:09;;;;;;;3.80;1.52;;;;;29.40;94265.00;;;;7394710;19;20504;-79
2022/08/12 14:06:39;;;;;;;1.83;1.65;;;;;29.50;94254.00;;;;7392769;19;20145;-77
2022/08/12 14:09:16;;;;;;;1.50;1.40;;;;;29.70;94261.00;;;;7397148;19;20143;-80
2022/08/12 14:11:54;;;;;;;4.22;2.03;;;;;28.80;94274.00;;;;7392597;19;20141;-78
2022/08/12 14:14:36;;;;;;;3.58;2.00;;;;;27.90;94283.00;;;;7392487;19;20144;-79
2022/08/12 14:17:08;;;;;;;4.95;2.20;;;;;27.40;94292.00;;;;7394844;19;20136;-80
2022/08/12 14:22:36;;;;;;;2.60;2.00;;;;;26.30;94293.00;;;;7393402;19;20141;-79
2022/08/12 14:25:18;;;;;;;5.30;1.92;;;;;25.90;94281.00;;;;7393810;19;20149;-80
2022/08/12 14:27:51;;;;;;;4.65;1.50;;;;;26.50;94281.00;;;;7391722;19;20153;-79
2022/08/12 14:30:32;;;;;;;5.60;2.17;;;;;27.30;94265.00;;;;7391445;19;20220;-77
2022/08/12 14:33:04;;;;;;;3.53;1.75;;;;;27.90;94259.00;;;;7390545;19;20148;-78
2022/08/12 14:35:38;;;;;;;3.47;1.88;;;;;28.40;94252.00;;;;7392670;19;20155;-77
2022/08/12 14:38:23;;;;;;;2.38;1.60;;;;;28.40;94253.00;;;;7390818;19;20164;-78
2022/08/12 14:41:01;;;;;;;2.53;1.50;;;;;28.80;94239.00;;;;7391545;19;20137;-77
2022/08/12 14:43:36;;;;;;;7.10;1.90;;;;;29.30;94249.00;;;;7393765;19;20504;-77
2022/08/12 14:46:31;;;;;;;4.10;1.95;;;;;29.70;94242.00;;;;7391347;19;20137;-78
2022/08/12 14:48:59;;;;;;;2.38;1.60;;;;;29.60;94249.00;;;;7394291;19;20458;-77
2022/08/12 14:51:56;;;;;;;3.20;1.73;;;;;29.00;94257.00;;;;7391903;19;20608;-78
2022/08/12 14:54:44;;;;;;;2.10;1.52;;;;;28.60;94265.00;;;;7395815;19;20137;-76
2022/08/12 14:57:56;;;;;;;3.67;1.90;;;;;27.40;94277.00;;;;7392646;19;20140;-77
2022/08/12 15:03:28;;;;;;;4.47;1.70;;;;;27.90;94269.00;;;;7395002;19;20208;-77
2022/08/12 15:06:18;;;;;;;3.58;1.75;;;;;27.90;94264.00;;;;7400335;19;20151;-76
2022/08/12 15:09:13;;;;;;;3.47;1.92;;;;;28.00;94254.00;;;;7401775;19;20196;-76